Independence, Michigan
Current Conditions -  °F | °C
As of 6:36 PM on Thursday 18 Dec 2014 (Local Time) from KPTK Reporting Station
Light Snow Light Snow  
Wind Chill: 23°   Ceiling: 1400
Heat Index: 30°   Visibility: 10mi
Dew Point: 27°   Wind: 7mph
Humidity: 88%   Direction: 320°NW
Pressure: 30.14"   Gusts: NA
Location:  42.7676°N, 83.4033°W
Report Text: KPTK 182336Z 32006KT 10SM -SN FEW008 BKN014 OVC020 M01/M03 A3014 RMK AO2 SNB35 P0000 T10111028
Loading
Personal Weather Stations






























Interactive Weather Map New forecast layout! Learn more

10-Day Weather Forecast

Advertisements
Track Severe Weather on mobile